sensor_id;sensor_type;location;lat;lon;timestamp;P1;durP1;ratioP1;P2;durP2;ratioP2
33184;SDS011;19550;42.872;25.494;2023-04-30T00:00:42;13.48;;;7.53;;
33184;SDS011;19550;42.872;25.494;2023-04-30T00:03:09;12.93;;;7.40;;
33184;SDS011;19550;42.872;25.494;2023-04-30T00:05:37;12.88;;;6.65;;
33184;SDS011;19550;42.872;25.494;2023-04-30T00:08:03;15.20;;;8.05;;
33184;SDS011;19550;42.872;25.494;2023-04-30T00:10:30;17.00;;;8.65;;
33184;SDS011;19550;42.872;25.494;2023-04-30T00:12:57;12.82;;;7.55;;
33184;SDS011;19550;42.872;25.494;2023-04-30T00:15:24;10.20;;;6.90;;
33184;SDS011;19550;42.872;25.494;2023-04-30T00:17:51;10.77;;;6.85;;
33184;SDS011;19550;42.872;25.494;2023-04-30T00:20:18;11.68;;;7.03;;
33184;SDS011;19550;42.872;25.494;2023-04-30T00:22:46;13.20;;;7.97;;
33184;SDS011;19550;42.872;25.494;2023-04-30T00:25:13;13.15;;;7.40;;
33184;SDS011;19550;42.872;25.494;2023-04-30T00:27:40;14.52;;;8.48;;
33184;SDS011;19550;42.872;25.494;2023-04-30T00:30:07;12.13;;;7.65;;
33184;SDS011;19550;42.872;25.494;2023-04-30T00:32:34;12.48;;;7.68;;
33184;SDS011;19550;42.872;25.494;2023-04-30T00:35:01;14.30;;;8.25;;
33184;SDS011;19550;42.872;25.494;2023-04-30T00:37:29;15.38;;;8.15;;
33184;SDS011;19550;42.872;25.494;2023-04-30T00:39:57;14.85;;;8.02;;
33184;SDS011;19550;42.872;25.494;2023-04-30T00:42:24;15.48;;;7.85;;
33184;SDS011;19550;42.872;25.494;2023-04-30T00:44:51;13.65;;;7.47;;
33184;SDS011;19550;42.872;25.494;2023-04-30T00:47:18;14.98;;;7.80;;
33184;SDS011;19550;42.872;25.494;2023-04-30T00:49:44;18.25;;;8.07;;
33184;SDS011;19550;42.872;25.494;2023-04-30T00:52:11;10.98;;;7.40;;
33184;SDS011;19550;42.872;25.494;2023-04-30T00:54:39;13.65;;;7.82;;
33184;SDS011;19550;42.872;25.494;2023-04-30T00:57:08;12.52;;;7.25;;
33184;SDS011;19550;42.872;25.494;2023-04-30T00:59:37;13.50;;;7.68;;
33184;SDS011;19550;42.872;25.494;2023-04-30T01:02:05;12.15;;;8.00;;
33184;SDS011;19550;42.872;25.494;2023-04-30T01:04:33;11.38;;;7.80;;
33184;SDS011;19550;42.872;25.494;2023-04-30T01:07:01;11.75;;;7.95;;
33184;SDS011;19550;42.872;25.494;2023-04-30T01:09:28;15.18;;;7.78;;
33184;SDS011;19550;42.872;25.494;2023-04-30T01:11:56;13.23;;;8.13;;
33184;SDS011;19550;42.872;25.494;2023-04-30T01:14:36;13.18;;;7.30;;
33184;SDS011;19550;42.872;25.494;2023-04-30T01:17:11;12.27;;;7.35;;
33184;SDS011;19550;42.872;25.494;2023-04-30T01:19:44;12.80;;;7.93;;
33184;SDS011;19550;42.872;25.494;2023-04-30T01:22:13;12.80;;;7.40;;
33184;SDS011;19550;42.872;25.494;2023-04-30T01:25:06;12.73;;;7.57;;
33184;SDS011;19550;42.872;25.494;2023-04-30T01:28:00;13.27;;;7.70;;
33184;SDS011;19550;42.872;25.494;2023-04-30T01:30:29;13.27;;;7.80;;
33184;SDS011;19550;42.872;25.494;2023-04-30T01:32:56;13.15;;;7.40;;
33184;SDS011;19550;42.872;25.494;2023-04-30T01:35:26;11.95;;;7.25;;
33184;SDS011;19550;42.872;25.494;2023-04-30T01:38:02;11.60;;;7.30;;
33184;SDS011;19550;42.872;25.494;2023-04-30T01:40:38;15.00;;;7.93;;
33184;SDS011;19550;42.872;25.494;2023-04-30T01:43:11;14.77;;;7.47;;
33184;SDS011;19550;42.872;25.494;2023-04-30T01:45:49;14.90;;;6.93;;
33184;SDS011;19550;42.872;25.494;2023-04-30T01:48:27;15.10;;;7.85;;
33184;SDS011;19550;42.872;25.494;2023-04-30T01:51:04;17.17;;;7.38;;
33184;SDS011;19550;42.872;25.494;2023-04-30T01:53:38;14.05;;;7.47;;
33184;SDS011;19550;42.872;25.494;2023-04-30T01:56:09;14.10;;;7.60;;
33184;SDS011;19550;42.872;25.494;2023-04-30T01:58:43;14.68;;;7.05;;
33184;SDS011;19550;42.872;25.494;2023-04-30T02:01:24;14.15;;;7.88;;
33184;SDS011;19550;42.872;25.494;2023-04-30T02:03:51;12.02;;;7.55;;
33184;SDS011;19550;42.872;25.494;2023-04-30T02:06:18;12.60;;;7.25;;
33184;SDS011;19550;42.872;25.494;2023-04-30T02:08:45;13.88;;;7.95;;
33184;SDS011;19550;42.872;25.494;2023-04-30T02:11:12;16.75;;;7.22;;
33184;SDS011;19550;42.872;25.494;2023-04-30T02:13:39;16.20;;;7.75;;
33184;SDS011;19550;42.872;25.494;2023-04-30T02:16:07;15.95;;;7.47;;
33184;SDS011;19550;42.872;25.494;2023-04-30T02:18:34;12.60;;;7.22;;
33184;SDS011;19550;42.872;25.494;2023-04-30T02:21:01;13.90;;;7.32;;
33184;SDS011;19550;42.872;25.494;2023-04-30T02:23:27;17.88;;;8.20;;
33184;SDS011;19550;42.872;25.494;2023-04-30T02:25:54;16.02;;;8.02;;
33184;SDS011;19550;42.872;25.494;2023-04-30T02:28:21;10.85;;;7.25;;
33184;SDS011;19550;42.872;25.494;2023-04-30T02:30:48;12.73;;;7.18;;
33184;SDS011;19550;42.872;25.494;2023-04-30T02:33:16;13.23;;;6.90;;
33184;SDS011;19550;42.872;25.494;2023-04-30T02:35:43;10.50;;;6.90;;
33184;SDS011;19550;42.872;25.494;2023-04-30T02:38:10;12.18;;;7.07;;
33184;SDS011;19550;42.872;25.494;2023-04-30T02:40:37;12.18;;;7.93;;
33184;SDS011;19550;42.872;25.494;2023-04-30T02:43:05;12.95;;;7.70;;
33184;SDS011;19550;42.872;25.494;2023-04-30T02:45:32;11.48;;;7.22;;
33184;SDS011;19550;42.872;25.494;2023-04-30T02:47:59;11.07;;;7.38;;
33184;SDS011;19550;42.872;25.494;2023-04-30T02:50:27;12.43;;;7.65;;
33184;SDS011;19550;42.872;25.494;2023-04-30T02:52:54;11.35;;;7.15;;
33184;SDS011;19550;42.872;25.494;2023-04-30T02:55:21;12.75;;;7.50;;
33184;SDS011;19550;42.872;25.494;2023-04-30T02:57:48;14.07;;;8.07;;
33184;SDS011;19550;42.872;25.494;2023-04-30T03:00:14;15.65;;;8.38;;
33184;SDS011;19550;42.872;25.494;2023-04-30T03:02:41;16.17;;;8.57;;
33184;SDS011;19550;42.872;25.494;2023-04-30T03:05:08;13.63;;;7.65;;
33184;SDS011;19550;42.872;25.494;2023-04-30T03:07:37;14.85;;;8.20;;
33184;SDS011;19550;42.872;25.494;2023-04-30T03:10:04;13.95;;;8.75;;
33184;SDS011;19550;42.872;25.494;2023-04-30T03:12:32;14.35;;;7.97;;
33184;SDS011;19550;42.872;25.494;2023-04-30T03:14:59;16.63;;;8.88;;
33184;SDS011;19550;42.872;25.494;2023-04-30T03:17:26;11.63;;;7.72;;
33184;SDS011;19550;42.872;25.494;2023-04-30T03:19:52;29.52;;;18.23;;
33184;SDS011;19550;42.872;25.494;2023-04-30T03:22:19;11.85;;;8.20;;
33184;SDS011;19550;42.872;25.494;2023-04-30T03:24:49;13.00;;;8.43;;
33184;SDS011;19550;42.872;25.494;2023-04-30T03:27:16;15.85;;;10.10;;
33184;SDS011;19550;42.872;25.494;2023-04-30T03:29:42;15.13;;;8.70;;
33184;SDS011;19550;42.872;25.494;2023-04-30T03:32:09;11.65;;;8.98;;
33184;SDS011;19550;42.872;25.494;2023-04-30T03:34:36;15.55;;;9.20;;
33184;SDS011;19550;42.872;25.494;2023-04-30T03:37:03;11.00;;;7.82;;
33184;SDS011;19550;42.872;25.494;2023-04-30T03:39:30;11.30;;;7.53;;
33184;SDS011;19550;42.872;25.494;2023-04-30T03:41:58;10.63;;;7.75;;
33184;SDS011;19550;42.872;25.494;2023-04-30T03:44:27;11.07;;;7.13;;
33184;SDS011;19550;42.872;25.494;2023-04-30T03:46:54;15.65;;;7.40;;
33184;SDS011;19550;42.872;25.494;2023-04-30T03:49:21;11.23;;;7.63;;
33184;SDS011;19550;42.872;25.494;2023-04-30T03:51:47;12.02;;;7.38;;
33184;SDS011;19550;42.872;25.494;2023-04-30T03:54:14;14.30;;;8.05;;
33184;SDS011;19550;42.872;25.494;2023-04-30T03:56:41;15.77;;;9.48;;
33184;SDS011;19550;42.872;25.494;2023-04-30T03:59:09;12.52;;;8.07;;
33184;SDS011;19550;42.872;25.494;2023-04-30T04:01:36;15.82;;;9.30;;
33184;SDS011;19550;42.872;25.494;2023-04-30T04:04:03;16.90;;;9.77;;
33184;SDS011;19550;42.872;25.494;2023-04-30T04:06:30;16.58;;;10.20;;
33184;SDS011;19550;42.872;25.494;2023-04-30T04:08:57;10.57;;;8.13;;
33184;SDS011;19550;42.872;25.494;2023-04-30T04:11:24;11.68;;;7.90;;
33184;SDS011;19550;42.872;25.494;2023-04-30T04:13:51;14.60;;;8.70;;
33184;SDS011;19550;42.872;25.494;2023-04-30T04:16:19;15.55;;;9.50;;
33184;SDS011;19550;42.872;25.494;2023-04-30T04:18:46;13.95;;;9.68;;
33184;SDS011;19550;42.872;25.494;2023-04-30T04:21:13;18.45;;;11.38;;
33184;SDS011;19550;42.872;25.494;2023-04-30T04:23:40;15.35;;;10.73;;
33184;SDS011;19550;42.872;25.494;2023-04-30T04:26:07;16.83;;;10.18;;
33184;SDS011;19550;42.872;25.494;2023-04-30T04:28:34;16.70;;;9.90;;
33184;SDS011;19550;42.872;25.494;2023-04-30T04:31:02;15.68;;;10.23;;
33184;SDS011;19550;42.872;25.494;2023-04-30T04:33:30;18.35;;;11.18;;
33184;SDS011;19550;42.872;25.494;2023-04-30T04:35:57;24.13;;;13.10;;
33184;SDS011;19550;42.872;25.494;2023-04-30T04:38:24;15.77;;;10.18;;
33184;SDS011;19550;42.872;25.494;2023-04-30T04:40:51;17.45;;;9.88;;
33184;SDS011;19550;42.872;25.494;2023-04-30T04:43:18;19.40;;;9.52;;
33184;SDS011;19550;42.872;25.494;2023-04-30T04:45:45;15.88;;;9.05;;
33184;SDS011;19550;42.872;25.494;2023-04-30T04:48:12;19.50;;;11.00;;
33184;SDS011;19550;42.872;25.494;2023-04-30T04:50:40;10.88;;;7.70;;
33184;SDS011;19550;42.872;25.494;2023-04-30T04:53:07;12.60;;;8.10;;
33184;SDS011;19550;42.872;25.494;2023-04-30T04:55:34;18.48;;;7.13;;
33184;SDS011;19550;42.872;25.494;2023-04-30T04:58:01;9.80;;;6.63;;
33184;SDS011;19550;42.872;25.494;2023-04-30T05:00:28;10.75;;;6.95;;
33184;SDS011;19550;42.872;25.494;2023-04-30T05:02:54;11.50;;;7.30;;
33184;SDS011;19550;42.872;25.494;2023-04-30T05:05:21;13.75;;;7.28;;
33184;SDS011;19550;42.872;25.494;2023-04-30T05:07:49;15.40;;;7.53;;
33184;SDS011;19550;42.872;25.494;2023-04-30T05:10:19;9.00;;;6.82;;
33184;SDS011;19550;42.872;25.494;2023-04-30T05:12:46;14.40;;;7.75;;
33184;SDS011;19550;42.872;25.494;2023-04-30T05:15:12;11.38;;;7.25;;
33184;SDS011;19550;42.872;25.494;2023-04-30T05:17:39;10.00;;;6.20;;
33184;SDS011;19550;42.872;25.494;2023-04-30T05:20:06;9.57;;;5.28;;
33184;SDS011;19550;42.872;25.494;2023-04-30T05:22:34;12.07;;;5.07;;
33184;SDS011;19550;42.872;25.494;2023-04-30T05:25:02;7.35;;;5.53;;
33184;SDS011;19550;42.872;25.494;2023-04-30T05:27:30;8.98;;;5.22;;
33184;SDS011;19550;42.872;25.494;2023-04-30T05:29:56;9.70;;;5.63;;
33184;SDS011;19550;42.872;25.494;2023-04-30T05:32:23;14.68;;;6.47;;
33184;SDS011;19550;42.872;25.494;2023-04-30T05:34:52;6.70;;;4.78;;
33184;SDS011;19550;42.872;25.494;2023-04-30T05:37:19;7.80;;;5.07;;
33184;SDS011;19550;42.872;25.494;2023-04-30T05:39:46;11.02;;;5.43;;
33184;SDS011;19550;42.872;25.494;2023-04-30T05:42:15;10.20;;;5.15;;
33184;SDS011;19550;42.872;25.494;2023-04-30T05:44:41;10.73;;;5.82;;
33184;SDS011;19550;42.872;25.494;2023-04-30T05:47:08;9.80;;;6.68;;
33184;SDS011;19550;42.872;25.494;2023-04-30T05:49:35;11.80;;;7.53;;
33184;SDS011;19550;42.872;25.494;2023-04-30T05:52:02;12.50;;;7.15;;
33184;SDS011;19550;42.872;25.494;2023-04-30T05:54:29;11.85;;;7.25;;
33184;SDS011;19550;42.872;25.494;2023-04-30T05:56:55;12.15;;;7.35;;
33184;SDS011;19550;42.872;25.494;2023-04-30T05:59:24;12.13;;;8.10;;
33184;SDS011;19550;42.872;25.494;2023-04-30T06:01:50;13.93;;;8.27;;
33184;SDS011;19550;42.872;25.494;2023-04-30T06:04:17;11.07;;;7.05;;
33184;SDS011;19550;42.872;25.494;2023-04-30T06:06:44;11.93;;;7.05;;
33184;SDS011;19550;42.872;25.494;2023-04-30T06:09:11;15.88;;;6.90;;
33184;SDS011;19550;42.872;25.494;2023-04-30T06:11:38;6.80;;;5.63;;
33184;SDS011;19550;42.872;25.494;2023-04-30T06:14:04;10.07;;;5.10;;
33184;SDS011;19550;42.872;25.494;2023-04-30T06:16:33;6.30;;;4.68;;
33184;SDS011;19550;42.872;25.494;2023-04-30T06:18:59;7.35;;;4.95;;
33184;SDS011;19550;42.872;25.494;2023-04-30T06:21:26;9.98;;;5.22;;
33184;SDS011;19550;42.872;25.494;2023-04-30T06:23:53;9.25;;;5.10;;
33184;SDS011;19550;42.872;25.494;2023-04-30T06:26:20;6.80;;;4.50;;
33184;SDS011;19550;42.872;25.494;2023-04-30T06:28:47;5.70;;;4.30;;
33184;SDS011;19550;42.872;25.494;2023-04-30T06:31:13;8.65;;;4.63;;
33184;SDS011;19550;42.872;25.494;2023-04-30T06:33:42;7.60;;;4.75;;
33184;SDS011;19550;42.872;25.494;2023-04-30T06:36:08;10.43;;;4.07;;
33184;SDS011;19550;42.872;25.494;2023-04-30T06:38:35;6.00;;;4.07;;
33184;SDS011;19550;42.872;25.494;2023-04-30T06:41:02;9.65;;;4.63;;
33184;SDS011;19550;42.872;25.494;2023-04-30T06:43:29;6.13;;;4.45;;
33184;SDS011;19550;42.872;25.494;2023-04-30T06:45:56;9.98;;;4.28;;
33184;SDS011;19550;42.872;25.494;2023-04-30T06:48:23;5.88;;;3.17;;
33184;SDS011;19550;42.872;25.494;2023-04-30T06:50:51;10.38;;;3.90;;
33184;SDS011;19550;42.872;25.494;2023-04-30T06:53:18;5.13;;;3.10;;
33184;SDS011;19550;42.872;25.494;2023-04-30T06:55:44;6.85;;;3.60;;
33184;SDS011;19550;42.872;25.494;2023-04-30T06:58:11;5.63;;;3.38;;
33184;SDS011;19550;42.872;25.494;2023-04-30T07:00:38;7.32;;;3.60;;
33184;SDS011;19550;42.872;25.494;2023-04-30T07:03:05;5.93;;;3.50;;
33184;SDS011;19550;42.872;25.494;2023-04-30T07:05:32;6.40;;;3.83;;
33184;SDS011;19550;42.872;25.494;2023-04-30T07:08:01;7.00;;;3.47;;
33184;SDS011;19550;42.872;25.494;2023-04-30T07:10:30;9.55;;;3.55;;
33184;SDS011;19550;42.872;25.494;2023-04-30T07:12:56;6.00;;;3.00;;
33184;SDS011;19550;42.872;25.494;2023-04-30T07:15:23;7.38;;;3.15;;
33184;SDS011;19550;42.872;25.494;2023-04-30T07:17:50;7.60;;;3.25;;
33184;SDS011;19550;42.872;25.494;2023-04-30T07:20:17;5.90;;;3.95;;
33184;SDS011;19550;42.872;25.494;2023-04-30T07:22:44;4.68;;;3.33;;
33184;SDS011;19550;42.872;25.494;2023-04-30T07:25:12;6.28;;;4.10;;
33184;SDS011;19550;42.872;25.494;2023-04-30T07:27:39;7.80;;;3.65;;
33184;SDS011;19550;42.872;25.494;2023-04-30T07:30:07;5.93;;;3.83;;
33184;SDS011;19550;42.872;25.494;2023-04-30T07:32:34;8.02;;;3.30;;
33184;SDS011;19550;42.872;25.494;2023-04-30T07:35:02;9.70;;;3.38;;
33184;SDS011;19550;42.872;25.494;2023-04-30T07:37:30;4.55;;;3.65;;
33184;SDS011;19550;42.872;25.494;2023-04-30T07:39:57;5.82;;;3.08;;
33184;SDS011;19550;42.872;25.494;2023-04-30T07:42:26;5.43;;;3.58;;
33184;SDS011;19550;42.872;25.494;2023-04-30T07:44:53;5.55;;;3.47;;
33184;SDS011;19550;42.872;25.494;2023-04-30T07:47:19;8.77;;;3.75;;
33184;SDS011;19550;42.872;25.494;2023-04-30T07:49:46;9.40;;;4.40;;
33184;SDS011;19550;42.872;25.494;2023-04-30T07:52:14;7.45;;;3.97;;
33184;SDS011;19550;42.872;25.494;2023-04-30T07:54:41;7.85;;;3.92;;
33184;SDS011;19550;42.872;25.494;2023-04-30T07:57:08;5.97;;;4.07;;
33184;SDS011;19550;42.872;25.494;2023-04-30T07:59:36;10.45;;;4.40;;
33184;SDS011;19550;42.872;25.494;2023-04-30T08:02:03;6.95;;;3.53;;
33184;SDS011;19550;42.872;25.494;2023-04-30T08:04:30;5.65;;;3.63;;
33184;SDS011;19550;42.872;25.494;2023-04-30T08:06:57;4.82;;;3.38;;
33184;SDS011;19550;42.872;25.494;2023-04-30T08:09:23;4.47;;;3.13;;
33184;SDS011;19550;42.872;25.494;2023-04-30T08:11:50;9.95;;;3.80;;
33184;SDS011;19550;42.872;25.494;2023-04-30T08:14:17;5.60;;;3.15;;
33184;SDS011;19550;42.872;25.494;2023-04-30T08:16:45;6.47;;;3.22;;
33184;SDS011;19550;42.872;25.494;2023-04-30T08:19:12;6.57;;;3.20;;
33184;SDS011;19550;42.872;25.494;2023-04-30T08:21:39;5.10;;;3.20;;
33184;SDS011;19550;42.872;25.494;2023-04-30T08:24:06;8.50;;;4.25;;
33184;SDS011;19550;42.872;25.494;2023-04-30T08:26:32;4.82;;;3.00;;
33184;SDS011;19550;42.872;25.494;2023-04-30T08:28:59;6.15;;;2.97;;
33184;SDS011;19550;42.872;25.494;2023-04-30T08:31:26;6.47;;;2.97;;
33184;SDS011;19550;42.872;25.494;2023-04-30T08:33:54;6.45;;;3.08;;
33184;SDS011;19550;42.872;25.494;2023-04-30T08:36:21;8.82;;;2.90;;
33184;SDS011;19550;42.872;25.494;2023-04-30T08:38:48;7.25;;;3.30;;
33184;SDS011;19550;42.872;25.494;2023-04-30T08:41:15;8.45;;;3.22;;
33184;SDS011;19550;42.872;25.494;2023-04-30T08:43:41;5.95;;;3.05;;
33184;SDS011;19550;42.872;25.494;2023-04-30T08:46:10;3.13;;;2.60;;
33184;SDS011;19550;42.872;25.494;2023-04-30T08:48:38;4.93;;;2.97;;
33184;SDS011;19550;42.872;25.494;2023-04-30T08:51:07;4.85;;;3.20;;
33184;SDS011;19550;42.872;25.494;2023-04-30T08:53:35;4.18;;;3.30;;
33184;SDS011;19550;42.872;25.494;2023-04-30T08:56:03;7.00;;;3.28;;
33184;SDS011;19550;42.872;25.494;2023-04-30T08:58:30;5.38;;;2.70;;
33184;SDS011;19550;42.872;25.494;2023-04-30T09:00:57;5.15;;;3.08;;
33184;SDS011;19550;42.872;25.494;2023-04-30T09:03:25;4.85;;;3.10;;
33184;SDS011;19550;42.872;25.494;2023-04-30T09:05:52;5.65;;;3.47;;
33184;SDS011;19550;42.872;25.494;2023-04-30T09:13:52;5.22;;;3.22;;
33184;SDS011;19550;42.872;25.494;2023-04-30T09:16:21;3.95;;;2.78;;
33184;SDS011;19550;42.872;25.494;2023-04-30T09:18:49;4.60;;;3.03;;
33184;SDS011;19550;42.872;25.494;2023-04-30T09:21:16;4.47;;;2.90;;
33184;SDS011;19550;42.872;25.494;2023-04-30T09:23:57;4.28;;;2.95;;
33184;SDS011;19550;42.872;25.494;2023-04-30T09:26:26;7.20;;;3.28;;
33184;SDS011;19550;42.872;25.494;2023-04-30T09:28:54;6.72;;;3.45;;
33184;SDS011;19550;42.872;25.494;2023-04-30T09:31:22;6.78;;;3.03;;
33184;SDS011;19550;42.872;25.494;2023-04-30T09:33:50;3.60;;;2.70;;
33184;SDS011;19550;42.872;25.494;2023-04-30T09:36:17;3.83;;;2.55;;
33184;SDS011;19550;42.872;25.494;2023-04-30T09:38:44;8.13;;;5.47;;
33184;SDS011;19550;42.872;25.494;2023-04-30T09:41:21;6.55;;;3.30;;
33184;SDS011;19550;42.872;25.494;2023-04-30T09:43:50;5.68;;;3.22;;
33184;SDS011;19550;42.872;25.494;2023-04-30T09:46:17;5.30;;;3.20;;
33184;SDS011;19550;42.872;25.494;2023-04-30T09:48:46;4.53;;;2.97;;
33184;SDS011;19550;42.872;25.494;2023-04-30T09:51:21;5.25;;;3.10;;
33184;SDS011;19550;42.872;25.494;2023-04-30T09:53:47;4.22;;;3.13;;
33184;SDS011;19550;42.872;25.494;2023-04-30T09:56:17;5.18;;;3.30;;
33184;SDS011;19550;42.872;25.494;2023-04-30T09:58:49;5.35;;;3.03;;
33184;SDS011;19550;42.872;25.494;2023-04-30T10:01:17;5.20;;;3.55;;
33184;SDS011;19550;42.872;25.494;2023-04-30T10:03:45;4.38;;;2.65;;
33184;SDS011;19550;42.872;25.494;2023-04-30T10:06:13;5.55;;;3.05;;
33184;SDS011;19550;42.872;25.494;2023-04-30T10:08:43;4.95;;;3.15;;
33184;SDS011;19550;42.872;25.494;2023-04-30T10:11:13;5.30;;;3.40;;
33184;SDS011;19550;42.872;25.494;2023-04-30T10:13:44;5.43;;;3.10;;
33184;SDS011;19550;42.872;25.494;2023-04-30T10:16:20;9.75;;;3.30;;
33184;SDS011;19550;42.872;25.494;2023-04-30T10:18:53;3.58;;;3.00;;
33184;SDS011;19550;42.872;25.494;2023-04-30T10:21:22;3.70;;;2.95;;
33184;SDS011;19550;42.872;25.494;2023-04-30T10:23:52;5.90;;;3.00;;
33184;SDS011;19550;42.872;25.494;2023-04-30T10:26:20;4.30;;;3.15;;
33184;SDS011;19550;42.872;25.494;2023-04-30T10:28:48;7.35;;;4.00;;
33184;SDS011;19550;42.872;25.494;2023-04-30T10:31:15;6.32;;;3.53;;
33184;SDS011;19550;42.872;25.494;2023-04-30T10:33:45;5.40;;;3.40;;
33184;SDS011;19550;42.872;25.494;2023-04-30T10:36:21;3.17;;;2.80;;
33184;SDS011;19550;42.872;25.494;2023-04-30T10:38:54;7.00;;;3.75;;
33184;SDS011;19550;42.872;25.494;2023-04-30T10:41:25;6.43;;;3.72;;
33184;SDS011;19550;42.872;25.494;2023-04-30T10:43:54;4.65;;;3.60;;
33184;SDS011;19550;42.872;25.494;2023-04-30T10:46:22;4.30;;;3.28;;
33184;SDS011;19550;42.872;25.494;2023-04-30T10:48:52;5.70;;;3.50;;
33184;SDS011;19550;42.872;25.494;2023-04-30T10:51:20;10.18;;;4.65;;
33184;SDS011;19550;42.872;25.494;2023-04-30T10:53:48;6.53;;;3.72;;
33184;SDS011;19550;42.872;25.494;2023-04-30T10:56:29;9.95;;;4.82;;
33184;SDS011;19550;42.872;25.494;2023-04-30T10:59:00;11.65;;;6.75;;
33184;SDS011;19550;42.872;25.494;2023-04-30T11:01:27;19.13;;;6.50;;
33184;SDS011;19550;42.872;25.494;2023-04-30T11:04:06;10.10;;;5.90;;
33184;SDS011;19550;42.872;25.494;2023-04-30T11:09:34;5.85;;;3.55;;
33184;SDS011;19550;42.872;25.494;2023-04-30T11:12:03;4.78;;;3.50;;
33184;SDS011;19550;42.872;25.494;2023-04-30T11:14:38;5.20;;;3.47;;
33184;SDS011;19550;42.872;25.494;2023-04-30T11:17:08;5.18;;;3.08;;
33184;SDS011;19550;42.872;25.494;2023-04-30T11:19:40;4.57;;;2.92;;
33184;SDS011;19550;42.872;25.494;2023-04-30T11:22:15;8.02;;;3.35;;
33184;SDS011;19550;42.872;25.494;2023-04-30T11:24:50;7.20;;;3.47;;
33184;SDS011;19550;42.872;25.494;2023-04-30T11:27:26;5.75;;;4.80;;
33184;SDS011;19550;42.872;25.494;2023-04-30T11:29:54;6.53;;;3.90;;
33184;SDS011;19550;42.872;25.494;2023-04-30T11:32:22;8.93;;;4.10;;
33184;SDS011;19550;42.872;25.494;2023-04-30T11:34:53;4.65;;;3.35;;
33184;SDS011;19550;42.872;25.494;2023-04-30T11:37:20;9.35;;;5.72;;
33184;SDS011;19550;42.872;25.494;2023-04-30T11:42:16;11.98;;;4.93;;
33184;SDS011;19550;42.872;25.494;2023-04-30T11:44:44;9.73;;;4.55;;
33184;SDS011;19550;42.872;25.494;2023-04-30T11:47:11;7.20;;;4.25;;
33184;SDS011;19550;42.872;25.494;2023-04-30T11:49:38;8.10;;;5.18;;
33184;SDS011;19550;42.872;25.494;2023-04-30T11:52:06;7.80;;;5.60;;
33184;SDS011;19550;42.872;25.494;2023-04-30T11:57:01;11.18;;;4.93;;
33184;SDS011;19550;42.872;25.494;2023-04-30T11:59:29;10.90;;;7.20;;
33184;SDS011;19550;42.872;25.494;2023-04-30T12:01:56;8.35;;;4.80;;
33184;SDS011;19550;42.872;25.494;2023-04-30T12:04:23;11.45;;;5.20;;
33184;SDS011;19550;42.872;25.494;2023-04-30T12:06:51;10.05;;;5.85;;
33184;SDS011;19550;42.872;25.494;2023-04-30T12:09:19;7.00;;;4.70;;
33184;SDS011;19550;42.872;25.494;2023-04-30T12:11:46;8.63;;;4.45;;
33184;SDS011;19550;42.872;25.494;2023-04-30T12:14:13;46.10;;;8.15;;
33184;SDS011;19550;42.872;25.494;2023-04-30T12:16:41;10.85;;;4.32;;
33184;SDS011;19550;42.872;25.494;2023-04-30T12:19:09;6.45;;;3.60;;
33184;SDS011;19550;42.872;25.494;2023-04-30T12:21:37;5.90;;;3.78;;
33184;SDS011;19550;42.872;25.494;2023-04-30T12:24:04;8.00;;;5.22;;
33184;SDS011;19550;42.872;25.494;2023-04-30T12:26:36;8.93;;;4.90;;
33184;SDS011;19550;42.872;25.494;2023-04-30T12:29:04;7.50;;;4.63;;
33184;SDS011;19550;42.872;25.494;2023-04-30T12:31:31;7.43;;;4.35;;
33184;SDS011;19550;42.872;25.494;2023-04-30T12:34:02;7.43;;;3.80;;
33184;SDS011;19550;42.872;25.494;2023-04-30T12:36:30;5.32;;;3.67;;
33184;SDS011;19550;42.872;25.494;2023-04-30T12:39:07;5.63;;;3.95;;
33184;SDS011;19550;42.872;25.494;2023-04-30T12:41:38;5.15;;;3.50;;
33184;SDS011;19550;42.872;25.494;2023-04-30T12:44:13;5.65;;;3.53;;
33184;SDS011;19550;42.872;25.494;2023-04-30T12:46:41;6.82;;;3.10;;
33184;SDS011;19550;42.872;25.494;2023-04-30T12:49:10;4.68;;;3.03;;
33184;SDS011;19550;42.872;25.494;2023-04-30T12:51:38;5.85;;;3.25;;
33184;SDS011;19550;42.872;25.494;2023-04-30T12:54:08;5.18;;;3.13;;
33184;SDS011;19550;42.872;25.494;2023-04-30T12:56:35;5.28;;;3.38;;
33184;SDS011;19550;42.872;25.494;2023-04-30T12:59:13;6.47;;;3.45;;
33184;SDS011;19550;42.872;25.494;2023-04-30T13:01:43;5.80;;;4.15;;
33184;SDS011;19550;42.872;25.494;2023-04-30T13:04:10;6.53;;;3.85;;
33184;SDS011;19550;42.872;25.494;2023-04-30T13:06:37;6.03;;;4.50;;
33184;SDS011;19550;42.872;25.494;2023-04-30T13:09:04;8.65;;;4.72;;
33184;SDS011;19550;42.872;25.494;2023-04-30T13:11:30;8.23;;;4.63;;
33184;SDS011;19550;42.872;25.494;2023-04-30T13:13:58;9.02;;;6.60;;
33184;SDS011;19550;42.872;25.494;2023-04-30T13:16:25;6.55;;;4.43;;
33184;SDS011;19550;42.872;25.494;2023-04-30T13:18:52;10.23;;;4.07;;
33184;SDS011;19550;42.872;25.494;2023-04-30T13:21:19;7.18;;;5.10;;
33184;SDS011;19550;42.872;25.494;2023-04-30T13:23:46;9.93;;;3.97;;
33184;SDS011;19550;42.872;25.494;2023-04-30T13:26:13;9.55;;;6.53;;
33184;SDS011;19550;42.872;25.494;2023-04-30T13:28:40;6.57;;;5.07;;
33184;SDS011;19550;42.872;25.494;2023-04-30T13:31:09;6.18;;;4.28;;
33184;SDS011;19550;42.872;25.494;2023-04-30T13:33:35;6.40;;;4.15;;
33184;SDS011;19550;42.872;25.494;2023-04-30T13:36:02;6.32;;;3.72;;
33184;SDS011;19550;42.872;25.494;2023-04-30T13:38:29;9.13;;;6.07;;
33184;SDS011;19550;42.872;25.494;2023-04-30T13:40:56;10.85;;;4.53;;
33184;SDS011;19550;42.872;25.494;2023-04-30T13:43:23;7.03;;;3.92;;
33184;SDS011;19550;42.872;25.494;2023-04-30T13:45:49;7.43;;;4.63;;
33184;SDS011;19550;42.872;25.494;2023-04-30T13:48:18;7.90;;;5.95;;
33184;SDS011;19550;42.872;25.494;2023-04-30T13:50:44;10.07;;;4.88;;
33184;SDS011;19550;42.872;25.494;2023-04-30T13:53:11;5.97;;;4.57;;
33184;SDS011;19550;42.872;25.494;2023-04-30T13:55:39;6.70;;;4.30;;
33184;SDS011;19550;42.872;25.494;2023-04-30T13:58:06;5.50;;;3.88;;
33184;SDS011;19550;42.872;25.494;2023-04-30T14:00:33;7.78;;;6.15;;
33184;SDS011;19550;42.872;25.494;2023-04-30T14:02:59;11.93;;;8.60;;
33184;SDS011;19550;42.872;25.494;2023-04-30T14:05:28;8.48;;;4.95;;
33184;SDS011;19550;42.872;25.494;2023-04-30T14:07:55;7.85;;;4.32;;
33184;SDS011;19550;42.872;25.494;2023-04-30T14:10:22;6.63;;;4.80;;
33184;SDS011;19550;42.872;25.494;2023-04-30T14:12:49;8.07;;;3.90;;
33184;SDS011;19550;42.872;25.494;2023-04-30T14:15:15;7.35;;;3.72;;
33184;SDS011;19550;42.872;25.494;2023-04-30T14:17:42;6.00;;;3.78;;
33184;SDS011;19550;42.872;25.494;2023-04-30T14:20:10;6.35;;;3.88;;
33184;SDS011;19550;42.872;25.494;2023-04-30T14:22:39;4.75;;;3.20;;
33184;SDS011;19550;42.872;25.494;2023-04-30T14:25:06;8.43;;;4.22;;
33184;SDS011;19550;42.872;25.494;2023-04-30T14:27:34;6.95;;;4.35;;
33184;SDS011;19550;42.872;25.494;2023-04-30T14:30:03;6.35;;;4.00;;
33184;SDS011;19550;42.872;25.494;2023-04-30T14:32:30;5.13;;;3.30;;
33184;SDS011;19550;42.872;25.494;2023-04-30T14:34:57;6.35;;;4.07;;
33184;SDS011;19550;42.872;25.494;2023-04-30T14:37:24;11.73;;;5.07;;
33184;SDS011;19550;42.872;25.494;2023-04-30T14:39:52;5.97;;;3.58;;
33184;SDS011;19550;42.872;25.494;2023-04-30T14:42:19;4.53;;;3.95;;
33184;SDS011;19550;42.872;25.494;2023-04-30T14:44:46;6.25;;;3.50;;
33184;SDS011;19550;42.872;25.494;2023-04-30T14:47:12;7.72;;;3.70;;